Forside
METAR-TAF:

METAR-TAF

Lufthavne :

Bahrain, Bahrain

Breddekreds: 26-16N, længdekreds: 050-39E, højde: 2 m

Aktuelle vejr

Denne rapport blev lavet for 29 minutter siden, kl. 16:30 UTC
Vind 7 kt fra øst
Temperatur 31°C
Fugtighed 49%
Tryk 1014 hPa
Sigt 10 km eller mere
ingen skyer under 1500m og ingen cumulonimbus

METAR: OBBI 151630Z 10007KT CAVOK 31/19 Q1014 NOSIG

Tid: 19:59 (16:59 UTC)

Vejrudsigter

Denne rapport blev lavet for 4 timer og 46 minutter siden, kl. 12:13 UTC
Foreløbig gælder fra 15 på 12 UTC til 16 på 18 UTC
Vind 10 kt fra nordnordøst
Sigt: 8000 m
Nogle få skyer i en højde af 3000 ft
Sandsynlighed 30% :
Midlertidig
fra 15 på 12 UTC til 15 på 16 UTC
Vind 17 kt fra vestnordvest med vindstød på up til 27 kt
Sigt: 1000 m
Udbredt støv
ændring
fra 15 på 18 UTC til 15 på 20 UTC
Vind 8 kt fra syd
ændring
fra 16 på 09 UTC til 16 på 11 UTC
Vind 10 kt fra østnordøst

TAF: OBBI 151213Z 1512/1618 03010KT 8000 FEW030 PROB30 TEMPO 1512/1516 30017G27KT 1000 DU BECMG 1518/1520 18008KT BECMG 1609/1611 06010KT

Vejrobservationer og prognoser fra mere end 4000 lufthavne (METAR og TAF).

De gule og røde prikker repræsenterer de meteorologiske stationer.

Flyt musen over at se navnet på stationen.

Så klik over at se vejr observationer og prognoser.

At skifte det kort: Klik på de grønne knapper med et sort kors for at zoome ind; på den grønne knap med en bindestreg for at zoome ud; eller på de grønne pile for tilstødende kort.


METAR-TAF: